createdAt,value
2018-06-18T00:00:27.256Z,101371.41
2018-06-18T00:02:54.599Z,101371.09
2018-06-18T00:05:22.198Z,101368.20
2018-06-18T00:07:50.393Z,101365.72
2018-06-18T00:10:17.999Z,101374.55
2018-06-18T00:12:45.152Z,101373.64
2018-06-18T00:15:12.276Z,101375.93
2018-06-18T00:17:39.436Z,101375.34
2018-06-18T00:20:06.599Z,101376.05
2018-06-18T00:22:33.771Z,101376.08
2018-06-18T00:25:00.899Z,101375.30
2018-06-18T00:27:28.080Z,101371.43
2018-06-18T00:29:55.389Z,101370.98
2018-06-18T00:32:22.820Z,101375.21
2018-06-18T00:34:50.309Z,101371.00
2018-06-18T00:37:17.717Z,101370.45
2018-06-18T00:39:44.891Z,101362.17
2018-06-18T00:42:13.200Z,101360.27
2018-06-18T00:44:40.299Z,101366.44
2018-06-18T00:47:07.455Z,101359.30
2018-06-18T00:49:34.719Z,101361.66
2018-06-18T00:52:01.922Z,101359.47
2018-06-18T00:54:29.063Z,101360.91
2018-06-18T00:56:56.393Z,101357.28
2018-06-18T00:59:23.847Z,101359.16
2018-06-18T01:01:51.432Z,101358.80
2018-06-18T01:04:18.891Z,101365.47
2018-06-18T01:06:46.029Z,101362.41
2018-06-18T01:09:13.216Z,101370.61
2018-06-18T01:11:40.366Z,101377.61
2018-06-18T01:14:07.493Z,101376.94
2018-06-18T01:16:34.605Z,101379.19
2018-06-18T01:19:01.758Z,101377.97
2018-06-18T01:21:28.953Z,101393.36
2018-06-18T01:24:03.416Z,101380.61
2018-06-18T01:26:30.560Z,101381.51
2018-06-18T01:28:57.998Z,101374.55
2018-06-18T01:31:25.378Z,101376.31
2018-06-18T01:33:55.109Z,101371.38
2018-06-18T01:36:22.739Z,101377.16
2018-06-18T01:38:50.434Z,101374.71
2018-06-18T01:41:17.697Z,101379.24
2018-06-18T01:43:44.835Z,101376.22
2018-06-18T01:46:11.994Z,101387.21
2018-06-18T01:48:39.120Z,101384.00
2018-06-18T01:51:06.231Z,101387.42
2018-06-18T01:53:33.391Z,101378.13
2018-06-18T01:56:00.501Z,101386.69
2018-06-18T01:58:27.853Z,101386.70
2018-06-18T02:00:55.192Z,101389.37
2018-06-18T02:03:22.883Z,101385.89
2018-06-18T02:05:50.787Z,101384.33
2018-06-18T02:08:18.024Z,101389.11
2018-06-18T02:10:45.309Z,101391.80
2018-06-18T02:13:12.452Z,101396.53
2018-06-18T02:15:39.625Z,101396.58
2018-06-18T02:18:06.800Z,101395.39
2018-06-18T02:20:34.001Z,101397.27
2018-06-18T02:23:01.179Z,101397.66
2018-06-18T02:25:28.407Z,101393.75
2018-06-18T02:28:01.368Z,101407.47
2018-06-18T02:30:34.263Z,101400.61
2018-06-18T02:33:07.369Z,101396.47
2018-06-18T02:35:40.181Z,101394.55
2018-06-18T02:40:15.349Z,101389.00
2018-06-18T02:42:42.533Z,101397.95
2018-06-18T02:45:09.682Z,101397.06
2018-06-18T02:47:36.841Z,101401.96
2018-06-18T02:50:04.001Z,101408.01
2018-06-18T02:52:31.169Z,101419.27
2018-06-18T02:54:59.414Z,101413.04
2018-06-18T02:57:26.674Z,101417.73
2018-06-18T02:59:53.984Z,101413.83
2018-06-18T03:02:21.789Z,101414.53
2018-06-18T03:04:49.027Z,101422.72
2018-06-18T03:07:16.217Z,101419.14
2018-06-18T03:09:43.394Z,101423.92
2018-06-18T03:12:10.517Z,101427.28
2018-06-18T03:14:37.660Z,101425.06
2018-06-18T03:17:04.808Z,101421.85
2018-06-18T03:19:37.478Z,101419.48
2018-06-18T03:22:10.408Z,101428.72
2018-06-18T03:24:43.157Z,101432.97
2018-06-18T03:27:16.128Z,101428.25
2018-06-18T03:29:43.247Z,101427.88
2018-06-18T03:32:15.420Z,101418.56
2018-06-18T03:34:42.871Z,101414.28
2018-06-18T03:37:12.034Z,101410.70
2018-06-18T03:39:39.216Z,101409.67
2018-06-18T03:42:06.550Z,101409.75
2018-06-18T03:44:42.848Z,101414.31
2018-06-18T03:47:31.007Z,101409.73
2018-06-18T03:49:58.299Z,101401.42
2018-06-18T03:52:25.625Z,101400.84
2018-06-18T03:54:58.381Z,101401.67
2018-06-18T03:57:25.652Z,101398.53
2018-06-18T03:59:52.849Z,101406.84
2018-06-18T04:03:34.578Z,101406.39
2018-06-18T04:06:07.826Z,101403.19
2018-06-18T04:08:35.592Z,101396.85
2018-06-18T04:11:08.639Z,101399.44
2018-06-18T04:13:36.175Z,101397.13
2018-06-18T04:16:05.537Z,101401.00
2018-06-18T04:18:37.794Z,101397.78
2018-06-18T04:21:05.739Z,101402.72
2018-06-18T04:23:33.077Z,101405.72
2018-06-18T04:26:00.328Z,101406.53
2018-06-18T04:28:27.812Z,101413.94
2018-06-18T04:30:55.051Z,101414.79
2018-06-18T04:33:24.977Z,101411.66
2018-06-18T04:35:52.107Z,101416.29
2018-06-18T04:38:19.308Z,101410.77
2018-06-18T04:40:46.720Z,101415.84
2018-06-18T04:43:19.748Z,101421.56
2018-06-18T04:45:51.615Z,101428.45
2018-06-18T04:48:24.706Z,101433.39
2018-06-18T04:50:59.484Z,101434.23
2018-06-18T04:53:26.648Z,101440.05
2018-06-18T04:55:53.787Z,101447.78
2018-06-18T04:58:20.982Z,101447.72
2018-06-18T05:00:57.788Z,101450.91
2018-06-18T05:03:25.139Z,101448.44
2018-06-18T05:05:53.477Z,101449.00
2018-06-18T05:08:43.093Z,101459.00
2018-06-18T05:11:10.267Z,101460.73
2018-06-18T05:13:37.438Z,101453.28
2018-06-18T05:16:05.523Z,101454.94
2018-06-18T05:18:32.645Z,101448.64
2018-06-18T05:21:02.778Z,101448.95
2018-06-18T05:23:40.287Z,101456.83
2018-06-18T05:26:08.654Z,101455.25
2018-06-18T05:28:35.929Z,101464.09
2018-06-18T05:31:03.361Z,101470.03
2018-06-18T05:33:30.694Z,101471.09
2018-06-18T05:35:58.101Z,101474.37
2018-06-18T05:38:29.891Z,101477.59
2018-06-18T05:40:58.260Z,101484.80
2018-06-18T05:43:28.699Z,101489.20
2018-06-18T05:45:57.344Z,101488.17
2018-06-18T05:48:26.773Z,101486.27
2018-06-18T05:50:58.388Z,101492.11
2018-06-18T05:53:28.213Z,101488.12
2018-06-18T05:55:58.121Z,101497.94
2018-06-18T05:58:27.040Z,101497.83
2018-06-18T06:00:56.160Z,101494.25
2018-06-18T06:03:29.009Z,101496.45
2018-06-18T06:05:56.867Z,101488.44
2018-06-18T06:08:26.002Z,101492.38
2018-06-18T06:10:53.227Z,101498.77
2018-06-18T06:13:20.529Z,101494.62
2018-06-18T06:15:47.656Z,101493.44
2018-06-18T06:18:15.465Z,101499.16
2018-06-18T06:21:08.126Z,101498.09
2018-06-18T06:23:35.512Z,101499.33
2018-06-18T06:26:03.243Z,101502.25
2018-06-18T06:28:30.601Z,101506.19
2018-06-18T06:30:57.918Z,101508.22
2018-06-18T06:33:25.961Z,101503.14
2018-06-18T06:35:54.387Z,101511.52
2018-06-18T06:38:21.606Z,101507.91
2018-06-18T06:40:48.805Z,101509.19
2018-06-18T06:43:16.008Z,101509.61
2018-06-18T06:45:43.232Z,101516.70
2018-06-18T06:48:10.471Z,101519.52
2018-06-18T06:50:37.771Z,101512.33
2018-06-18T06:53:05.136Z,101510.03
2018-06-18T06:55:32.822Z,101526.66
2018-06-18T06:58:00.348Z,101525.50
2018-06-18T07:00:27.757Z,101521.71
2018-06-18T07:02:55.965Z,101520.50
2018-06-18T07:05:23.252Z,101521.71
2018-06-18T07:07:51.112Z,101519.61
2018-06-18T07:10:18.812Z,101509.14
2018-06-18T07:12:54.704Z,101505.61
2018-06-18T07:18:00.673Z,101500.78
2018-06-18T07:20:28.824Z,101509.59
2018-06-18T07:22:56.434Z,101516.33
2018-06-18T07:25:23.674Z,101517.59
2018-06-18T07:27:50.857Z,101521.84
2018-06-18T07:30:20.001Z,101522.39
2018-06-18T07:32:52.812Z,101526.17
2018-06-18T07:35:21.267Z,101530.64
2018-06-18T07:37:48.733Z,101544.97
2018-06-18T07:40:17.573Z,101551.88
2018-06-18T07:42:52.572Z,101556.17
2018-06-18T07:45:26.432Z,101566.30
2018-06-18T07:47:54.094Z,101563.84
2018-06-18T07:50:22.258Z,101559.07
2018-06-18T07:52:49.883Z,101553.37
2018-06-18T07:55:17.276Z,101547.15
2018-06-18T07:57:47.161Z,101548.93
2018-06-18T08:00:19.650Z,101547.90
2018-06-18T08:02:52.417Z,101553.78
2018-06-18T08:05:23.757Z,101554.98
2018-06-18T08:07:55.071Z,101549.69
2018-06-18T08:10:23.633Z,101549.14
2018-06-18T08:12:53.602Z,101547.89
2018-06-18T08:15:21.006Z,101548.31
2018-06-18T08:17:49.085Z,101558.06
2018-06-18T08:20:17.763Z,101546.33
2018-06-18T08:22:51.863Z,101549.20
2018-06-18T08:25:19.739Z,101547.23
2018-06-18T08:27:51.301Z,101547.67
2018-06-18T08:30:19.200Z,101547.20
2018-06-18T08:32:51.644Z,101543.55
2018-06-18T08:35:23.903Z,101556.28
2018-06-18T08:37:53.306Z,101557.98
2018-06-18T08:40:20.564Z,101549.06
2018-06-18T08:42:52.244Z,101538.52
2018-06-18T08:45:19.408Z,101534.19
2018-06-18T08:47:47.329Z,101542.15
2018-06-18T08:50:20.454Z,101548.30
2018-06-18T08:52:54.790Z,101553.87
2018-06-18T08:55:27.730Z,101552.52
2018-06-18T08:58:01.818Z,101550.31
2018-06-18T09:00:37.402Z,101539.84
2018-06-18T09:03:05.128Z,101540.88
2018-06-18T09:05:38.049Z,101537.63
2018-06-18T09:08:11.161Z,101545.21
2018-06-18T09:10:38.325Z,101546.31
2018-06-18T09:13:05.558Z,101538.85
2018-06-18T09:15:32.761Z,101541.52
2018-06-18T09:18:00.027Z,101545.13
2018-06-18T09:20:27.240Z,101529.77
2018-06-18T09:22:54.368Z,101531.30
2018-06-18T09:25:21.626Z,101535.80
2018-06-18T09:27:48.792Z,101534.23
2018-06-18T09:30:16.058Z,101527.66
2018-06-18T09:32:43.479Z,101521.27
2018-06-18T09:35:12.237Z,101525.13
2018-06-18T09:37:43.244Z,101530.02
2018-06-18T09:40:11.284Z,101530.33
2018-06-18T09:42:38.457Z,101541.32
2018-06-18T09:45:05.836Z,101538.06
2018-06-18T09:47:34.012Z,101553.70
2018-06-18T09:50:07.065Z,101558.45
2018-06-18T09:52:40.176Z,101561.27
2018-06-18T09:55:13.096Z,101557.52
2018-06-18T09:57:46.008Z,101552.05
2018-06-18T10:00:27.658Z,101556.47
2018-06-18T10:02:55.444Z,101543.58
2018-06-18T10:05:22.650Z,101552.30
2018-06-18T10:07:51.988Z,101553.84
2018-06-18T10:10:19.269Z,101548.87
2018-06-18T10:12:46.511Z,101561.56
2018-06-18T10:15:13.853Z,101552.97
2018-06-18T10:17:41.300Z,101551.30
2018-06-18T10:20:09.552Z,101560.07
2018-06-18T10:22:36.769Z,101553.02
2018-06-18T10:25:03.954Z,101547.00
2018-06-18T10:27:31.091Z,101547.43
2018-06-18T10:29:58.327Z,101543.78
2018-06-18T10:32:31.160Z,101547.89
2018-06-18T10:36:06.697Z,101539.23
2018-06-18T10:38:39.713Z,101550.11
2018-06-18T10:41:12.789Z,101552.11
2018-06-18T10:43:40.074Z,101552.91
2018-06-18T10:46:07.301Z,101543.31
2018-06-18T10:48:34.609Z,101545.89
2018-06-18T10:51:01.989Z,101543.98
2018-06-18T10:53:29.156Z,101541.14
2018-06-18T10:55:56.367Z,101532.56
2018-06-18T10:58:23.540Z,101527.81
2018-06-18T11:00:59.302Z,101528.06
2018-06-18T11:03:26.467Z,101538.80
2018-06-18T11:05:59.957Z,101533.06
2018-06-18T11:08:27.509Z,101535.02
2018-06-18T11:10:54.721Z,101524.84
2018-06-18T11:13:22.051Z,101525.13
2018-06-18T11:15:49.233Z,101515.26
2018-06-18T11:18:22.049Z,101507.03
2018-06-18T11:20:54.952Z,101509.48
2018-06-18T11:23:27.876Z,101509.05
2018-06-18T11:26:00.657Z,101531.56
2018-06-18T11:28:27.985Z,101528.13
2018-06-18T11:30:55.060Z,101532.37
2018-06-18T11:33:22.173Z,101516.00
2018-06-18T11:35:49.352Z,101521.48
2018-06-18T11:38:16.658Z,101520.48
2018-06-18T11:40:45.301Z,101523.88
2018-06-18T11:43:13.723Z,101522.88
2018-06-18T11:45:42.584Z,101521.66
2018-06-18T11:48:13.700Z,101527.88
2018-06-18T11:50:41.296Z,101529.45
2018-06-18T11:53:08.472Z,101529.80
2018-06-18T11:55:36.079Z,101535.91
2018-06-18T11:58:03.723Z,101529.32
2018-06-18T12:00:36.825Z,101530.70
2018-06-18T12:03:09.720Z,101532.56
2018-06-18T12:05:42.661Z,101532.69
2018-06-18T12:08:15.668Z,101536.86
2018-06-18T12:10:43.205Z,101533.95
2018-06-18T12:13:10.415Z,101529.33
2018-06-18T12:15:37.642Z,101523.28
2018-06-18T12:18:04.973Z,101525.19
2018-06-18T12:20:32.188Z,101517.89
2018-06-18T12:22:59.364Z,101516.50
2018-06-18T12:25:26.573Z,101519.59
2018-06-18T12:27:53.737Z,101516.95
2018-06-18T12:30:21.035Z,101501.91
2018-06-18T12:32:50.430Z,101505.77
2018-06-18T12:35:17.943Z,101509.15
2018-06-18T12:37:45.338Z,101500.69
2018-06-18T12:40:12.701Z,101504.05
2018-06-18T12:42:40.041Z,101502.70
2018-06-18T12:45:14.379Z,101507.30
2018-06-18T12:47:47.346Z,101489.80
2018-06-18T12:50:20.308Z,101493.83
2018-06-18T12:52:53.361Z,101493.97
2018-06-18T12:55:26.417Z,101484.53
2018-06-18T12:57:54.038Z,101491.27
2018-06-18T13:00:21.164Z,101495.59
2018-06-18T13:02:52.475Z,101490.63
2018-06-18T13:05:20.547Z,101485.76
2018-06-18T13:07:49.282Z,101492.34
2018-06-18T13:10:18.395Z,101487.91
2018-06-18T13:12:46.364Z,101488.91
2018-06-18T13:15:14.215Z,101489.16
2018-06-18T13:17:41.640Z,101488.39
2018-06-18T13:20:14.483Z,101496.00
2018-06-18T13:22:43.142Z,101489.91
2018-06-18T13:25:10.399Z,101492.52
2018-06-18T13:27:43.362Z,101487.23
2018-06-18T13:30:10.595Z,101484.84
2018-06-18T13:32:37.771Z,101489.33
2018-06-18T13:35:05.110Z,101487.64
2018-06-18T13:37:38.024Z,101482.34
2018-06-18T13:40:10.803Z,101487.31
2018-06-18T13:42:43.752Z,101488.83
2018-06-18T13:45:16.613Z,101485.80
2018-06-18T13:47:49.552Z,101483.86
2018-06-18T13:50:25.321Z,101480.75
2018-06-18T13:52:53.229Z,101484.61
2018-06-18T13:55:24.487Z,101481.75
2018-06-18T13:57:51.690Z,101486.41
2018-06-18T14:00:19.053Z,101490.27
2018-06-18T14:02:46.387Z,101485.75
2018-06-18T14:05:13.748Z,101485.27
2018-06-18T14:07:41.162Z,101478.80
2018-06-18T14:10:08.981Z,101474.37
2018-06-18T14:12:36.438Z,101469.00
2018-06-18T14:15:06.360Z,101471.58
2018-06-18T14:17:33.675Z,101468.00
2018-06-18T14:20:06.890Z,101459.63
2018-06-18T14:22:34.096Z,101459.89
2018-06-18T14:25:01.254Z,101460.72
2018-06-18T14:27:28.647Z,101454.36
2018-06-18T14:30:03.045Z,101448.45
2018-06-18T14:33:35.820Z,101441.91
2018-06-18T14:36:09.133Z,101444.73
2018-06-18T14:38:42.141Z,101450.27
2018-06-18T14:41:09.388Z,101447.33
2018-06-18T14:43:36.816Z,101439.03
2018-06-18T14:46:04.584Z,101435.84
2018-06-18T14:48:33.130Z,101428.19
2018-06-18T14:51:00.502Z,101442.36
2018-06-18T14:53:28.553Z,101439.64
2018-06-18T14:56:09.046Z,101444.41
2018-06-18T14:58:36.397Z,101443.92
2018-06-18T15:01:04.100Z,101440.25
2018-06-18T15:03:34.084Z,101437.81
2018-06-18T15:06:01.744Z,101437.12
2018-06-18T15:08:30.120Z,101430.23
2018-06-18T15:10:58.561Z,101430.73
2018-06-18T15:13:27.247Z,101430.35
2018-06-18T15:16:02.424Z,101436.37
2018-06-18T15:18:29.707Z,101438.83
2018-06-18T15:21:09.216Z,101439.17
2018-06-18T15:23:37.745Z,101425.41
2018-06-18T15:26:07.794Z,101439.30
2018-06-18T15:28:37.585Z,101440.62
2018-06-18T15:31:05.014Z,101444.22
2018-06-18T15:33:32.318Z,101439.09
2018-06-18T15:36:01.472Z,101441.15
2018-06-18T15:38:29.912Z,101452.56
2018-06-18T15:40:57.280Z,101451.97
2018-06-18T15:43:24.754Z,101450.87
2018-06-18T15:45:52.196Z,101452.19
2018-06-18T15:48:19.883Z,101444.80
2018-06-18T15:50:47.089Z,101446.19
2018-06-18T15:53:14.283Z,101447.28
2018-06-18T15:55:41.652Z,101447.33
2018-06-18T15:58:08.894Z,101445.23
2018-06-18T16:00:36.048Z,101447.06
2018-06-18T16:03:03.268Z,101443.61
2018-06-18T16:05:31.518Z,101438.66
2018-06-18T16:07:58.751Z,101433.28
2018-06-18T16:10:26.157Z,101434.00
2018-06-18T16:12:53.774Z,101429.02
2018-06-18T16:15:21.559Z,101435.55
2018-06-18T16:17:49.172Z,101431.84
2018-06-18T16:20:16.338Z,101432.34
2018-06-18T16:22:43.474Z,101430.80
2018-06-18T16:25:10.593Z,101429.45
2018-06-18T16:27:37.860Z,101426.44
2018-06-18T16:30:05.035Z,101426.28
2018-06-18T16:32:32.224Z,101418.84
2018-06-18T16:34:59.529Z,101417.28
2018-06-18T16:37:26.943Z,101428.06
2018-06-18T16:39:54.388Z,101421.32
2018-06-18T16:42:22.036Z,101417.03
2018-06-18T16:44:49.352Z,101421.45
2018-06-18T16:47:16.543Z,101416.91
2018-06-18T16:49:44.120Z,101427.34
2018-06-18T16:52:11.256Z,101424.00
2018-06-18T16:54:38.402Z,101418.95
2018-06-18T16:57:05.601Z,101413.68
2018-06-18T16:59:32.921Z,101412.50
2018-06-18T17:02:00.085Z,101414.02
2018-06-18T17:04:27.568Z,101414.72
2018-06-18T17:06:55.188Z,101409.27
2018-06-18T17:09:22.791Z,101401.94
2018-06-18T17:11:50.628Z,101408.70
2018-06-18T17:14:17.818Z,101405.60
2018-06-18T17:16:45.085Z,101394.05
2018-06-18T17:19:13.347Z,101400.40
2018-06-18T17:21:40.939Z,101401.36
2018-06-18T17:24:08.156Z,101402.19
2018-06-18T17:26:35.348Z,101398.50
2018-06-18T17:29:02.489Z,101399.49
2018-06-18T17:31:30.645Z,101399.97
2018-06-18T17:33:58.643Z,101398.20
2018-06-18T17:36:26.261Z,101394.72
2018-06-18T17:38:54.659Z,101394.61
2018-06-18T17:41:23.096Z,101398.65
2018-06-18T17:43:52.405Z,101397.05
2018-06-18T17:46:20.417Z,101398.39
2018-06-18T17:48:47.894Z,101398.69
2018-06-18T17:51:15.240Z,101399.66
2018-06-18T17:53:42.425Z,101403.36
2018-06-18T17:56:09.852Z,101397.94
2018-06-18T17:58:36.984Z,101401.53
2018-06-18T18:01:04.121Z,101401.00
2018-06-18T18:03:32.012Z,101402.02
2018-06-18T18:05:59.928Z,101400.54
2018-06-18T18:08:27.751Z,101402.31
2018-06-18T18:10:56.035Z,101404.56
2018-06-18T18:13:24.898Z,101399.33
2018-06-18T18:15:54.794Z,101400.10
2018-06-18T18:18:24.207Z,101398.28
2018-06-18T18:20:54.215Z,101399.86
2018-06-18T18:23:23.618Z,101398.45
2018-06-18T18:25:53.094Z,101400.41
2018-06-18T18:28:22.811Z,101400.84
2018-06-18T18:30:51.939Z,101398.61
2018-06-18T18:33:19.831Z,101406.34
2018-06-18T18:35:47.696Z,101405.10
2018-06-18T18:38:15.424Z,101402.70
2018-06-18T18:40:42.555Z,101404.45
2018-06-18T18:43:09.816Z,101407.72
2018-06-18T18:45:37.775Z,101408.48
2018-06-18T18:48:06.559Z,101400.20
2018-06-18T18:50:33.889Z,101409.18
2018-06-18T18:53:01.445Z,101409.11
2018-06-18T18:55:46.115Z,101408.62
2018-06-18T18:59:28.819Z,101417.63
2018-06-18T19:01:59.792Z,101416.13
2018-06-18T19:04:37.731Z,101418.69
2018-06-18T19:07:06.835Z,101416.70
2018-06-18T19:09:37.185Z,101420.73
2018-06-18T19:12:05.069Z,101425.02
2018-06-18T19:14:32.813Z,101422.80
2018-06-18T19:17:00.274Z,101424.23
2018-06-18T19:19:31.865Z,101434.55
2018-06-18T19:21:59.090Z,101436.73
2018-06-18T19:24:26.364Z,101438.84
2018-06-18T19:26:53.568Z,101442.11
2018-06-18T19:29:20.758Z,101445.67
2018-06-18T19:31:47.912Z,101443.52
2018-06-18T19:34:18.536Z,101447.27
2018-06-18T19:36:48.807Z,101448.59
2018-06-18T19:39:16.046Z,101449.04
2018-06-18T19:41:44.530Z,101451.02
2018-06-18T19:44:11.745Z,101452.25
2018-06-18T19:47:45.163Z,101464.08
2018-06-18T19:50:12.436Z,101464.81
2018-06-18T19:52:39.760Z,101470.01
2018-06-18T19:55:13.066Z,101475.23
2018-06-18T19:57:40.366Z,101474.66
2018-06-18T20:00:07.664Z,101464.73
2018-06-18T20:02:34.852Z,101470.16
2018-06-18T20:05:10.139Z,101474.20
2018-06-18T20:07:39.557Z,101473.83
2018-06-18T20:10:06.732Z,101473.96
2018-06-18T20:12:33.978Z,101473.92
2018-06-18T20:15:01.199Z,101476.61
2018-06-18T20:17:28.420Z,101477.27
2018-06-18T20:19:55.631Z,101480.75
2018-06-18T20:22:22.919Z,101492.91
2018-06-18T20:24:50.406Z,101485.56
2018-06-18T20:27:17.552Z,101494.09
2018-06-18T20:29:44.825Z,101487.98
2018-06-18T20:32:12.119Z,101490.72
2018-06-18T20:34:40.203Z,101495.73
2018-06-18T20:37:07.564Z,101491.80
2018-06-18T20:39:34.793Z,101499.95
2018-06-18T20:42:01.988Z,101496.36
2018-06-18T20:44:29.218Z,101502.55
2018-06-18T20:46:56.384Z,101496.89
2018-06-18T20:49:23.509Z,101502.68
2018-06-18T20:51:50.695Z,101501.63
2018-06-18T20:54:17.864Z,101503.26
2018-06-18T20:56:45.102Z,101504.87
2018-06-18T20:59:13.229Z,101501.61
2018-06-18T21:01:40.467Z,101503.52
2018-06-18T21:04:07.773Z,101498.75
2018-06-18T21:06:35.117Z,101504.66
2018-06-18T21:09:02.404Z,101502.00
2018-06-18T21:11:29.671Z,101504.47
2018-06-18T21:13:56.973Z,101498.39
2018-06-18T21:16:24.141Z,101499.98
2018-06-18T21:18:51.368Z,101496.58
2018-06-18T21:21:18.597Z,101491.98
2018-06-18T21:23:45.980Z,101496.55
2018-06-18T21:26:13.271Z,101498.95
2018-06-18T21:28:40.431Z,101495.71
2018-06-18T21:31:07.609Z,101498.52
2018-06-18T21:33:34.777Z,101491.98
2018-06-18T21:36:02.148Z,101496.12
2018-06-18T21:38:29.297Z,101491.16
2018-06-18T21:40:56.399Z,101494.34
2018-06-18T21:43:23.616Z,101499.38
2018-06-18T21:45:50.751Z,101492.83
2018-06-18T21:48:18.047Z,101498.16
2018-06-18T21:50:45.256Z,101498.70
2018-06-18T21:53:12.406Z,101494.97
2018-06-18T21:55:39.526Z,101500.44
2018-06-18T21:58:07.251Z,101496.30
2018-06-18T22:00:38.120Z,101497.23
2018-06-18T22:03:05.474Z,101499.31
2018-06-18T22:05:32.652Z,101496.12
2018-06-18T22:08:00.145Z,101489.78
2018-06-18T22:10:27.272Z,101491.41
2018-06-18T22:12:54.627Z,101486.74
2018-06-18T22:15:21.776Z,101487.61
2018-06-18T22:17:49.039Z,101484.22
2018-06-18T22:20:16.304Z,101479.19
2018-06-18T22:22:44.525Z,101475.08
2018-06-18T22:25:11.805Z,101471.61
2018-06-18T22:27:39.016Z,101470.45
2018-06-18T22:30:06.117Z,101469.98
2018-06-18T22:32:33.238Z,101468.72
2018-06-18T22:35:00.408Z,101467.38
2018-06-18T22:37:27.821Z,101466.67
2018-06-18T22:39:54.965Z,101463.20
2018-06-18T22:42:22.136Z,101458.95
2018-06-18T22:44:49.320Z,101459.47
2018-06-18T22:47:16.455Z,101463.31
2018-06-18T22:49:43.850Z,101460.65
2018-06-18T22:52:10.972Z,101461.72
2018-06-18T22:54:42.988Z,101462.24
2018-06-18T22:57:10.153Z,101462.85
2018-06-18T22:59:37.337Z,101466.69
2018-06-18T23:02:04.898Z,101469.84
2018-06-18T23:04:32.077Z,101470.91
2018-06-18T23:06:59.209Z,101470.91
2018-06-18T23:09:26.399Z,101469.70
2018-06-18T23:11:53.643Z,101475.31
2018-06-18T23:14:22.495Z,101472.54
2018-06-18T23:16:49.795Z,101463.86
2018-06-18T23:19:16.911Z,101469.84
2018-06-18T23:21:44.103Z,101474.88
2018-06-18T23:24:11.275Z,101470.33
2018-06-18T23:26:38.599Z,101473.55
2018-06-18T23:29:07.930Z,101469.77
2018-06-18T23:31:35.124Z,101471.72
2018-06-18T23:34:02.261Z,101476.63
2018-06-18T23:36:30.372Z,101480.30
2018-06-18T23:38:57.701Z,101483.69
2018-06-18T23:41:26.839Z,101477.34
2018-06-18T23:43:53.948Z,101477.55
2018-06-18T23:46:21.497Z,101481.02
2018-06-18T23:48:48.675Z,101479.11
2018-06-18T23:51:16.212Z,101479.38
2018-06-18T23:53:43.400Z,101478.75
2018-06-18T23:56:10.654Z,101482.08
2018-06-18T23:58:37.809Z,101488.16
